Time;durP1;ratioP1;P1;durP2;ratioP2;P2;SDS_P1;SDS_P2;PMS_P1;PMS_P2;Temp;Humidity;BMP_temperature;BMP_pressure;BME280_temperature;BME280_humidity;BME280_pressure;Samples;Min_cycle;Max_cycle;Signal;HPM_P1;HPM_P2
2022/10/19 00:01:22;;;;;;;;;58.50;48.75;;;;;;;;5084102;28;45320;-76
2022/10/19 00:03:49;;;;;;;;;23.25;23.25;;;;;;;;5085245;28;44797;-70
2022/10/19 00:06:25;;;;;;;;;13.25;13.25;;;;;;;;5085194;28;45368;-73
2022/10/19 00:08:51;;;;;;;;;13.00;13.00;;;;;;;;5079366;28;45325;-70
2022/10/19 00:11:16;;;;;;;;;10.50;10.50;;;;;;;;5078298;28;46490;-75
2022/10/19 00:13:41;;;;;;;;;8.50;8.50;;;;;;;;5079403;28;45272;-72
2022/10/19 00:16:07;;;;;;;;;11.00;10.75;;;;;;;;5078263;28;45369;-76
2022/10/19 00:18:33;;;;;;;;;12.50;12.50;;;;;;;;5078741;28;45631;-75
2022/10/19 00:21:01;;;;;;;;;12.25;12.25;;;;;;;;5077225;28;46082;-67
2022/10/19 00:23:27;;;;;;;;;10.00;10.00;;;;;;;;5077802;28;45568;-67
2022/10/19 00:25:55;;;;;;;;;11.50;11.25;;;;;;;;5077046;28;45157;-68
2022/10/19 00:28:21;;;;;;;;;9.75;9.75;;;;;;;;5077637;28;45463;-67
2022/10/19 00:30:46;;;;;;;;;9.75;9.75;;;;;;;;5077157;28;45446;-70
2022/10/19 00:33:11;;;;;;;;;13.25;13.25;;;;;;;;5077132;28;45452;-68
2022/10/19 00:35:39;;;;;;;;;12.00;12.00;;;;;;;;5077519;28;45310;-69
2022/10/19 00:38:05;;;;;;;;;12.25;12.25;;;;;;;;5077612;28;45273;-67
2022/10/19 00:40:36;;;;;;;;;12.75;12.75;;;;;;;;5077280;28;46038;-67
2022/10/19 00:43:01;;;;;;;;;8.50;8.50;;;;;;;;5077046;28;45339;-68
2022/10/19 00:45:26;;;;;;;;;10.50;10.50;;;;;;;;5076349;28;45532;-68
2022/10/19 00:47:51;;;;;;;;;10.25;10.25;;;;;;;;5076952;28;45335;-67
2022/10/19 00:50:17;;;;;;;;;11.50;11.50;;;;;;;;5077321;28;46541;-74
2022/10/19 00:52:42;;;;;;;;;12.75;11.25;;;;;;;;5078905;28;45393;-74
2022/10/19 00:55:08;;;;;;;;;12.00;12.00;;;;;;;;5096331;27;45254;-75
2022/10/19 00:57:33;;;;;;;;;10.25;10.25;;;;;;;;5078312;28;45207;-72
2022/10/19 01:00:01;;;;;;;;;12.50;12.50;;;;;;;;5078281;28;45265;-76
2022/10/19 01:02:26;;;;;;;;;17.25;16.50;;;;;;;;5078118;28;45373;-73
2022/10/19 01:04:52;;;;;;;;;14.00;14.00;;;;;;;;5077603;28;45388;-78
2022/10/19 01:07:18;;;;;;;;;13.00;13.00;;;;;;;;5078074;28;45546;-75
2022/10/19 01:09:43;;;;;;;;;12.00;12.00;;;;;;;;5077972;28;46124;-76
2022/10/19 01:12:28;;;;;;;;;12.25;12.25;;;;;;;;5084664;28;45352;-73
2022/10/19 01:14:57;;;;;;;;;12.00;12.00;;;;;;;;5079178;28;45260;-69
2022/10/19 01:17:37;;;;;;;;;13.00;13.00;;;;;;;;5094312;27;45291;-74
2022/10/19 01:20:05;;;;;;;;;11.25;11.25;;;;;;;;5079296;28;45444;-76
2022/10/19 01:22:39;;;;;;;;;11.75;11.75;;;;;;;;5077793;28;45377;-76
2022/10/19 01:25:07;;;;;;;;;12.75;12.75;;;;;;;;5077711;28;45445;-73
2022/10/19 01:27:32;;;;;;;;;10.50;10.50;;;;;;;;5078687;28;45255;-76
2022/10/19 01:30:01;;;;;;;;;13.75;13.75;;;;;;;;5078114;28;45362;-77
2022/10/19 01:32:37;;;;;;;;;11.00;11.00;;;;;;;;5077998;28;45321;-77
2022/10/19 01:35:10;;;;;;;;;13.25;13.25;;;;;;;;5078134;28;45432;-77
2022/10/19 01:37:49;;;;;;;;;12.75;12.75;;;;;;;;5078890;28;45337;-70
2022/10/19 01:40:29;;;;;;;;;21.75;21.75;;;;;;;;5078446;28;46741;-67
2022/10/19 01:43:01;;;;;;;;;12.25;12.00;;;;;;;;5079441;28;45414;-69
2022/10/19 01:45:30;;;;;;;;;12.50;12.50;;;;;;;;5079913;28;45310;-67
2022/10/19 01:48:02;;;;;;;;;13.00;13.00;;;;;;;;5082111;28;45283;-67
2022/10/19 01:50:27;;;;;;;;;12.50;12.50;;;;;;;;5082210;28;45498;-67
2022/10/19 01:52:54;;;;;;;;;13.75;13.75;;;;;;;;5078687;28;45251;-69
2022/10/19 01:55:20;;;;;;;;;11.50;11.50;;;;;;;;5076258;28;45285;-67
2022/10/19 01:57:47;;;;;;;;;13.50;13.50;;;;;;;;5094061;27;45604;-67
2022/10/19 02:00:14;;;;;;;;;12.00;12.00;;;;;;;;5077960;28;47370;-66
2022/10/19 02:02:40;;;;;;;;;15.50;15.50;;;;;;;;5079302;28;45456;-66
2022/10/19 02:05:07;;;;;;;;;14.00;13.00;;;;;;;;5079165;28;45354;-67
2022/10/19 02:07:32;;;;;;;;;11.50;11.50;;;;;;;;5079242;28;45373;-68
2022/10/19 02:09:58;;;;;;;;;14.50;13.50;;;;;;;;5078919;28;46256;-70
2022/10/19 02:12:24;;;;;;;;;11.50;11.50;;;;;;;;5078928;28;45883;-72
2022/10/19 02:14:52;;;;;;;;;13.25;13.25;;;;;;;;5097299;27;45302;-72
2022/10/19 02:17:20;;;;;;;;;12.50;12.50;;;;;;;;5080878;28;45464;-75
2022/10/19 02:19:45;;;;;;;;;12.00;12.00;;;;;;;;5080747;28;46571;-74
2022/10/19 02:22:10;;;;;;;;;10.75;10.75;;;;;;;;5081550;28;45397;-75
2022/10/19 02:24:36;;;;;;;;;13.75;13.75;;;;;;;;5084134;28;45346;-74
2022/10/19 02:27:04;;;;;;;;;11.00;11.00;;;;;;;;5080936;28;45529;-77
2022/10/19 02:29:30;;;;;;;;;11.00;11.00;;;;;;;;5080045;28;46171;-72
2022/10/19 02:31:55;;;;;;;;;10.25;10.25;;;;;;;;5081070;28;45196;-71
2022/10/19 02:34:20;;;;;;;;;12.75;12.75;;;;;;;;5080386;28;45172;-75
2022/10/19 02:36:45;;;;;;;;;9.25;9.25;;;;;;;;5081246;28;45227;-73
2022/10/19 02:39:11;;;;;;;;;10.50;10.25;;;;;;;;5082090;28;46598;-74
2022/10/19 02:41:43;;;;;;;;;12.25;11.50;;;;;;;;5080521;28;45216;-73
2022/10/19 02:44:27;;;;;;;;;10.50;10.50;;;;;;;;5080640;28;45303;-75
2022/10/19 02:46:54;;;;;;;;;10.50;10.50;;;;;;;;5080744;27;45425;-74
2022/10/19 02:49:20;;;;;;;;;12.75;12.75;;;;;;;;5080392;28;46665;-72
2022/10/19 02:51:59;;;;;;;;;10.50;10.50;;;;;;;;5113080;27;45401;-68
2022/10/19 02:54:24;;;;;;;;;10.00;10.00;;;;;;;;5078839;28;45316;-66
2022/10/19 02:56:49;;;;;;;;;10.25;10.25;;;;;;;;5078926;28;45350;-67
2022/10/19 02:59:15;;;;;;;;;10.25;10.00;;;;;;;;5080175;28;45920;-71
2022/10/19 03:01:41;;;;;;;;;12.00;12.00;;;;;;;;5080160;28;45374;-76
2022/10/19 03:04:06;;;;;;;;;9.75;9.75;;;;;;;;5079331;28;45309;-74
2022/10/19 03:06:31;;;;;;;;;10.00;10.00;;;;;;;;5078526;28;45304;-72
2022/10/19 03:08:56;;;;;;;;;11.25;11.25;;;;;;;;5078785;28;46137;-75
2022/10/19 03:11:21;;;;;;;;;12.75;12.75;;;;;;;;5079595;28;45529;-74
2022/10/19 03:13:47;;;;;;;;;6.75;6.75;;;;;;;;5080025;28;45445;-74
2022/10/19 03:16:12;;;;;;;;;11.00;11.00;;;;;;;;5080152;28;45625;-74
2022/10/19 03:18:37;;;;;;;;;12.00;12.00;;;;;;;;5095643;27;48416;-75
2022/10/19 03:21:07;;;;;;;;;11.00;11.00;;;;;;;;5079436;28;45334;-73
2022/10/19 03:23:33;;;;;;;;;12.00;12.00;;;;;;;;5079615;28;45432;-70
2022/10/19 03:25:58;;;;;;;;;10.00;10.00;;;;;;;;5079596;28;45302;-72
2022/10/19 03:28:23;;;;;;;;;12.25;12.25;;;;;;;;5079471;28;45528;-68
2022/10/19 03:30:48;;;;;;;;;12.25;12.25;;;;;;;;5079623;28;45863;-65
2022/10/19 03:33:14;;;;;;;;;12.00;12.00;;;;;;;;5080185;28;45412;-67
2022/10/19 03:35:39;;;;;;;;;13.50;13.50;;;;;;;;5081749;28;45455;-72
2022/10/19 03:38:04;;;;;;;;;12.75;12.00;;;;;;;;5089184;28;45273;-71
2022/10/19 03:40:29;;;;;;;;;11.50;11.50;;;;;;;;5098224;27;45281;-69
2022/10/19 03:42:55;;;;;;;;;12.00;12.00;;;;;;;;5079100;28;45812;-69
2022/10/19 03:45:20;;;;;;;;;9.50;9.50;;;;;;;;5079188;28;45403;-70
2022/10/19 03:47:49;;;;;;;;;12.50;12.50;;;;;;;;5078983;28;46128;-67
2022/10/19 03:50:15;;;;;;;;;11.75;11.75;;;;;;;;5080567;28;45381;-69
2022/10/19 03:52:41;;;;;;;;;12.25;12.25;;;;;;;;5079798;28;45231;-71
2022/10/19 03:55:06;;;;;;;;;11.75;11.75;;;;;;;;5081649;28;45531;-70
2022/10/19 03:57:31;;;;;;;;;11.50;11.50;;;;;;;;5076411;28;45917;-72
2022/10/19 03:59:56;;;;;;;;;16.75;16.75;;;;;;;;5078464;28;45403;-73
2022/10/19 04:02:22;;;;;;;;;12.00;12.00;;;;;;;;5077868;28;45306;-69
2022/10/19 04:04:47;;;;;;;;;13.00;13.00;;;;;;;;5079225;28;45228;-69
2022/10/19 04:07:12;;;;;;;;;14.00;14.00;;;;;;;;5086280;28;45211;-68
2022/10/19 04:09:38;;;;;;;;;13.00;13.00;;;;;;;;5079298;28;45359;-74
2022/10/19 04:12:03;;;;;;;;;14.25;14.25;;;;;;;;5079068;28;45370;-73
2022/10/19 04:14:28;;;;;;;;;14.50;14.50;;;;;;;;5079393;28;45316;-66
2022/10/19 04:16:53;;;;;;;;;12.75;12.75;;;;;;;;5077556;28;45485;-66
2022/10/19 04:19:19;;;;;;;;;12.75;12.75;;;;;;;;5077889;28;45523;-68
2022/10/19 04:21:46;;;;;;;;;13.50;13.50;;;;;;;;5077315;28;45431;-76
2022/10/19 04:24:13;;;;;;;;;12.50;12.50;;;;;;;;5077590;28;45448;-66
2022/10/19 04:26:39;;;;;;;;;13.75;13.75;;;;;;;;5076856;28;47394;-66
2022/10/19 04:29:05;;;;;;;;;14.75;14.75;;;;;;;;5077572;28;45231;-73
2022/10/19 04:31:30;;;;;;;;;15.00;15.00;;;;;;;;5077579;28;45320;-71
2022/10/19 04:33:55;;;;;;;;;13.25;13.25;;;;;;;;5077588;28;45298;-69
2022/10/19 04:36:22;;;;;;;;;23.50;23.50;;;;;;;;5078482;28;45309;-70
2022/10/19 04:38:47;;;;;;;;;14.00;14.00;;;;;;;;5078465;28;45372;-68
2022/10/19 04:41:13;;;;;;;;;14.50;14.50;;;;;;;;5077148;28;45301;-74
2022/10/19 04:43:39;;;;;;;;;12.50;12.50;;;;;;;;5077262;28;45329;-67
2022/10/19 04:46:08;;;;;;;;;11.50;11.50;;;;;;;;5076581;28;45427;-68
2022/10/19 04:48:34;;;;;;;;;14.75;14.75;;;;;;;;5077200;28;45240;-69
2022/10/19 04:51:00;;;;;;;;;16.00;14.25;;;;;;;;5077693;28;45337;-71
2022/10/19 04:53:25;;;;;;;;;15.00;15.00;;;;;;;;5077422;28;45382;-68
2022/10/19 04:55:51;;;;;;;;;20.00;20.00;;;;;;;;5076986;28;45343;-69
2022/10/19 04:58:16;;;;;;;;;15.50;15.50;;;;;;;;5077432;28;45192;-74
2022/10/19 05:00:41;;;;;;;;;15.75;15.25;;;;;;;;5077862;27;45188;-70
2022/10/19 05:03:06;;;;;;;;;13.75;13.75;;;;;;;;5076840;28;45297;-66
2022/10/19 05:05:32;;;;;;;;;13.50;13.50;;;;;;;;5076651;28;45439;-70
2022/10/19 05:07:57;;;;;;;;;14.75;14.00;;;;;;;;5093310;27;45326;-77
2022/10/19 05:10:22;;;;;;;;;15.50;15.50;;;;;;;;5079133;28;45301;-76
2022/10/19 05:12:47;;;;;;;;;14.25;14.25;;;;;;;;5083143;28;45132;-73
2022/10/19 05:15:12;;;;;;;;;18.75;18.75;;;;;;;;5079837;28;46830;-77
2022/10/19 05:17:38;;;;;;;;;15.00;15.00;;;;;;;;5077336;28;45318;-75
2022/10/19 05:20:03;;;;;;;;;17.75;17.75;;;;;;;;5078365;28;45365;-72
2022/10/19 05:22:29;;;;;;;;;16.25;16.00;;;;;;;;5094236;27;45475;-73
2022/10/19 05:24:54;;;;;;;;;18.75;18.75;;;;;;;;5078494;28;45482;-79
2022/10/19 05:27:19;;;;;;;;;17.00;17.00;;;;;;;;5078092;28;45382;-77
2022/10/19 05:29:44;;;;;;;;;15.75;15.75;;;;;;;;5078016;28;45324;-71
2022/10/19 05:32:09;;;;;;;;;15.00;15.00;;;;;;;;5078836;28;45510;-77
2022/10/19 05:34:34;;;;;;;;;15.25;15.25;;;;;;;;5082817;28;46586;-77
2022/10/19 05:37:00;;;;;;;;;29.50;29.25;;;;;;;;5077911;28;45446;-77
2022/10/19 05:39:25;;;;;;;;;22.00;22.00;;;;;;;;5079131;28;45400;-70
2022/10/19 05:41:50;;;;;;;;;17.00;17.00;;;;;;;;5078440;28;45334;-76
2022/10/19 05:44:20;;;;;;;;;14.25;14.25;;;;;;;;5080045;28;45553;-75
2022/10/19 05:46:45;;;;;;;;;12.75;12.75;;;;;;;;5077801;28;45283;-72
2022/10/19 05:49:11;;;;;;;;;14.75;14.75;;;;;;;;5092785;27;45397;-74
2022/10/19 05:51:37;;;;;;;;;15.75;15.75;;;;;;;;5077516;28;45620;-71
2022/10/19 05:54:03;;;;;;;;;16.75;16.75;;;;;;;;5076279;28;46155;-70
2022/10/19 05:56:29;;;;;;;;;15.25;15.25;;;;;;;;5092587;27;45520;-72
2022/10/19 05:58:55;;;;;;;;;14.00;14.00;;;;;;;;5077720;28;45280;-72
2022/10/19 06:01:20;;;;;;;;;13.25;13.25;;;;;;;;5078670;28;45528;-77
2022/10/19 06:03:49;;;;;;;;;15.75;15.75;;;;;;;;5077805;28;46225;-73
2022/10/19 06:06:14;;;;;;;;;15.50;15.50;;;;;;;;5076458;28;45315;-77
2022/10/19 06:08:39;;;;;;;;;18.00;18.00;;;;;;;;5073551;28;45486;-74
2022/10/19 06:11:09;;;;;;;;;14.25;14.25;;;;;;;;5075270;28;45140;-74
2022/10/19 06:13:35;;;;;;;;;14.25;14.25;;;;;;;;5075122;28;46735;-77
2022/10/19 06:16:00;;;;;;;;;16.50;16.50;;;;;;;;5074792;28;45335;-75
2022/10/19 06:18:25;;;;;;;;;16.50;16.50;;;;;;;;5075144;28;45474;-75
2022/10/19 06:20:51;;;;;;;;;14.75;14.75;;;;;;;;5075248;28;45373;-76
2022/10/19 06:23:16;;;;;;;;;20.50;20.50;;;;;;;;5075948;28;45350;-72
2022/10/19 06:25:41;;;;;;;;;15.50;15.50;;;;;;;;5075257;28;45302;-76
2022/10/19 06:28:07;;;;;;;;;14.00;14.00;;;;;;;;5075217;28;45392;-68
2022/10/19 06:30:32;;;;;;;;;13.50;13.50;;;;;;;;5075628;28;45499;-70
2022/10/19 06:32:57;;;;;;;;;16.50;16.50;;;;;;;;5075177;28;46049;-75
2022/10/19 06:35:23;;;;;;;;;23.50;23.50;;;;;;;;5074961;28;45365;-74
2022/10/19 06:37:48;;;;;;;;;21.25;21.25;;;;;;;;5075118;28;45236;-73
2022/10/19 06:40:13;;;;;;;;;21.50;20.50;;;;;;;;5075012;28;45726;-72
2022/10/19 06:42:38;;;;;;;;;20.75;20.75;;;;;;;;5075629;27;45993;-75
2022/10/19 06:45:05;;;;;;;;;16.50;16.50;;;;;;;;5077329;28;45239;-77
2022/10/19 06:47:31;;;;;;;;;21.00;21.00;;;;;;;;5078481;28;45327;-76
2022/10/19 06:49:57;;;;;;;;;12.50;12.50;;;;;;;;5079261;28;45240;-80
2022/10/19 06:52:22;;;;;;;;;16.50;16.50;;;;;;;;5100288;27;46212;-77
2022/10/19 06:54:47;;;;;;;;;18.00;18.00;;;;;;;;5086485;27;45242;-76
2022/10/19 06:57:12;;;;;;;;;18.75;18.75;;;;;;;;5112753;27;45323;-75
2022/10/19 06:59:37;;;;;;;;;18.50;17.75;;;;;;;;5080513;28;45312;-74
2022/10/19 07:02:03;;;;;;;;;19.00;19.00;;;;;;;;5081500;28;45435;-73
2022/10/19 07:04:28;;;;;;;;;21.00;20.75;;;;;;;;5091470;27;45444;-66
2022/10/19 07:06:54;;;;;;;;;18.00;18.00;;;;;;;;5077540;27;45399;-69
2022/10/19 07:09:19;;;;;;;;;20.75;20.50;;;;;;;;5077945;28;45342;-69
2022/10/19 07:11:44;;;;;;;;;18.50;18.50;;;;;;;;5077276;27;45447;-66
2022/10/19 07:14:10;;;;;;;;;23.00;23.00;;;;;;;;5077649;27;45477;-66
2022/10/19 07:16:35;;;;;;;;;23.00;22.75;;;;;;;;5077896;27;45303;-70
2022/10/19 07:19:00;;;;;;;;;20.00;18.75;;;;;;;;5078147;27;45535;-67
2022/10/19 07:21:25;;;;;;;;;15.75;15.75;;;;;;;;5076003;28;48205;-70
2022/10/19 07:23:50;;;;;;;;;25.00;25.00;;;;;;;;5077924;27;45349;-67
2022/10/19 07:26:25;;;;;;;;;18.00;18.00;;;;;;;;5077567;27;45354;-68
2022/10/19 07:28:50;;;;;;;;;16.75;16.75;;;;;;;;5077438;27;45563;-68
2022/10/19 07:31:17;;;;;;;;;17.75;17.75;;;;;;;;5078064;27;45374;-67
2022/10/19 07:33:42;;;;;;;;;14.00;14.00;;;;;;;;5077710;28;45352;-71
2022/10/19 07:36:09;;;;;;;;;19.25;19.25;;;;;;;;5080623;27;45398;-69
2022/10/19 07:38:34;;;;;;;;;21.50;20.75;;;;;;;;5083182;28;45576;-73
2022/10/19 07:41:19;;;;;;;;;18.75;18.75;;;;;;;;5081843;27;45901;-67
2022/10/19 07:43:45;;;;;;;;;20.50;20.50;;;;;;;;5078678;27;45419;-65
2022/10/19 07:46:14;;;;;;;;;17.25;17.25;;;;;;;;5078425;27;45274;-66
2022/10/19 07:48:40;;;;;;;;;18.25;18.25;;;;;;;;5078114;27;45530;-68
2022/10/19 07:51:07;;;;;;;;;22.25;20.75;;;;;;;;5077736;28;46106;-66
2022/10/19 07:53:33;;;;;;;;;19.50;19.50;;;;;;;;5080425;27;45320;-66
2022/10/19 07:56:05;;;;;;;;;21.00;21.00;;;;;;;;5078447;27;45339;-67
2022/10/19 07:58:30;;;;;;;;;25.50;25.50;;;;;;;;5079890;27;45634;-67
2022/10/19 08:01:00;;;;;;;;;29.25;28.00;;;;;;;;5078446;27;45322;-76
2022/10/19 08:03:25;;;;;;;;;17.25;17.25;;;;;;;;5076599;28;45259;-74
2022/10/19 08:05:50;;;;;;;;;19.50;19.50;;;;;;;;5077446;27;45221;-76
2022/10/19 08:08:15;;;;;;;;;18.50;18.50;;;;;;;;5078146;27;45516;-75
2022/10/19 08:10:40;;;;;;;;;18.00;18.00;;;;;;;;5076908;27;45315;-75
2022/10/19 08:13:06;;;;;;;;;18.25;18.25;;;;;;;;5076890;27;45226;-71
2022/10/19 08:15:31;;;;;;;;;19.75;19.75;;;;;;;;5077951;27;45428;-73
2022/10/19 08:17:56;;;;;;;;;18.25;18.25;;;;;;;;5079632;27;45160;-77
2022/10/19 08:20:21;;;;;;;;;21.25;21.25;;;;;;;;5079279;28;46092;-71
2022/10/19 08:22:47;;;;;;;;;18.00;18.00;;;;;;;;5077415;27;45238;-73
2022/10/19 08:25:12;;;;;;;;;20.75;20.75;;;;;;;;5077220;27;45362;-75
2022/10/19 08:27:37;;;;;;;;;19.25;19.25;;;;;;;;5078465;27;45603;-73
2022/10/19 08:30:02;;;;;;;;;24.75;24.75;;;;;;;;5082127;27;46371;-76
2022/10/19 08:32:28;;;;;;;;;25.75;25.75;;;;;;;;5109990;27;45672;-77
2022/10/19 08:34:53;;;;;;;;;19.25;19.25;;;;;;;;5077269;27;45240;-66
2022/10/19 08:37:18;;;;;;;;;26.00;25.00;;;;;;;;5077445;27;45361;-70
2022/10/19 08:39:43;;;;;;;;;23.00;23.00;;;;;;;;5078287;27;46295;-69
2022/10/19 08:42:18;;;;;;;;;22.00;22.00;;;;;;;;5077033;27;45392;-72
2022/10/19 08:44:46;;;;;;;;;23.25;23.25;;;;;;;;5076582;27;45488;-67
2022/10/19 08:47:14;;;;;;;;;22.25;20.50;;;;;;;;5076458;27;45521;-66
2022/10/19 08:49:39;;;;;;;;;22.50;22.00;;;;;;;;5109047;27;46473;-71
2022/10/19 08:52:11;;;;;;;;;21.75;21.75;;;;;;;;5076476;27;45290;-69
2022/10/19 08:54:42;;;;;;;;;21.50;21.50;;;;;;;;5076342;27;45310;-68
2022/10/19 08:57:26;;;;;;;;;19.50;19.50;;;;;;;;5076024;27;45201;-68
2022/10/19 08:59:58;;;;;;;;;21.50;20.75;;;;;;;;5076108;27;46159;-76
2022/10/19 09:02:27;;;;;;;;;28.75;28.75;;;;;;;;5075707;28;45305;-68
2022/10/19 09:05:00;;;;;;;;;21.75;21.75;;;;;;;;5075842;27;45302;-69
2022/10/19 09:07:29;;;;;;;;;22.00;22.00;;;;;;;;5107942;27;45249;-68
2022/10/19 09:09:55;;;;;;;;;19.00;19.00;;;;;;;;5074522;28;45458;-67
2022/10/19 09:12:28;;;;;;;;;17.75;17.75;;;;;;;;5109030;27;45464;-69
2022/10/19 09:14:59;;;;;;;;;21.75;20.75;;;;;;;;5076376;27;45420;-67
2022/10/19 09:17:24;;;;;;;;;22.00;22.00;;;;;;;;5076785;27;45340;-69
2022/10/19 09:19:50;;;;;;;;;26.00;26.00;;;;;;;;5076711;27;45342;-67
2022/10/19 09:22:28;;;;;;;;;31.25;30.25;;;;;;;;5110331;27;45250;-75
2022/10/19 09:24:56;;;;;;;;;22.25;22.25;;;;;;;;5079701;28;45532;-73
2022/10/19 09:27:23;;;;;;;;;18.75;18.00;;;;;;;;5078774;27;45358;-75
2022/10/19 09:29:49;;;;;;;;;19.00;19.00;;;;;;;;5077268;27;45440;-68
2022/10/19 09:32:19;;;;;;;;;17.75;17.75;;;;;;;;5077948;27;45248;-67
2022/10/19 09:34:56;;;;;;;;;17.75;17.75;;;;;;;;5112197;27;45355;-66
2022/10/19 09:37:22;;;;;;;;;18.25;18.25;;;;;;;;5077451;27;45362;-68
2022/10/19 09:39:47;;;;;;;;;19.50;19.50;;;;;;;;5077124;28;45394;-67
2022/10/19 09:42:15;;;;;;;;;18.25;17.75;;;;;;;;5076487;28;45212;-70
2022/10/19 09:44:40;;;;;;;;;28.75;28.00;;;;;;;;5077232;27;45345;-66
2022/10/19 09:47:24;;;;;;;;;26.00;25.25;;;;;;;;5076927;28;45582;-67
2022/10/19 09:49:49;;;;;;;;;22.75;22.75;;;;;;;;5077062;27;45314;-69
2022/10/19 09:52:22;;;;;;;;;17.75;17.75;;;;;;;;5112290;27;45401;-70
2022/10/19 09:54:49;;;;;;;;;19.75;19.75;;;;;;;;5078321;27;45379;-72
2022/10/19 09:57:21;;;;;;;;;17.75;17.25;;;;;;;;5077512;27;45500;-68
2022/10/19 09:59:49;;;;;;;;;17.00;17.00;;;;;;;;5108616;27;47079;-70
2022/10/19 10:02:17;;;;;;;;;21.50;21.50;;;;;;;;5075930;27;45228;-70
2022/10/19 10:04:46;;;;;;;;;25.00;23.00;;;;;;;;5076038;27;45307;-73
2022/10/19 10:07:14;;;;;;;;;53.25;45.25;;;;;;;;5076091;27;45333;-71
2022/10/19 10:09:41;;;;;;;;;24.50;24.50;;;;;;;;5109262;27;47115;-71
2022/10/19 10:12:07;;;;;;;;;27.75;27.75;;;;;;;;5109831;27;45794;-72
2022/10/19 10:14:34;;;;;;;;;24.50;24.50;;;;;;;;5109654;27;45238;-75
2022/10/19 10:17:03;;;;;;;;;27.75;27.50;;;;;;;;5076023;27;45261;-74
2022/10/19 10:19:30;;;;;;;;;41.00;36.00;;;;;;;;5079409;28;45343;-69
2022/10/19 10:21:57;;;;;;;;;42.00;36.75;;;;;;;;5081437;27;45314;-73
2022/10/19 10:24:23;;;;;;;;;22.75;22.75;;;;;;;;5080541;27;45196;-77
2022/10/19 10:26:53;;;;;;;;;33.25;31.50;;;;;;;;5079502;28;45284;-72
2022/10/19 10:29:20;;;;;;;;;19.25;19.25;;;;;;;;5079946;27;46563;-74
2022/10/19 10:31:46;;;;;;;;;17.75;17.75;;;;;;;;5080439;27;45269;-71
2022/10/19 10:34:17;;;;;;;;;17.50;17.50;;;;;;;;5081433;27;45254;-74
2022/10/19 10:36:52;;;;;;;;;25.75;25.75;;;;;;;;5079241;28;45575;-72
2022/10/19 10:39:17;;;;;;;;;30.25;29.25;;;;;;;;5080701;27;48031;-71
2022/10/19 10:41:43;;;;;;;;;27.75;27.50;;;;;;;;5080363;28;45844;-69
2022/10/19 10:44:19;;;;;;;;;18.25;18.25;;;;;;;;5078432;28;45326;-73
2022/10/19 10:46:50;;;;;;;;;24.25;24.25;;;;;;;;5079221;27;45263;-76
2022/10/19 10:49:20;;;;;;;;;27.00;27.00;;;;;;;;5079509;27;45566;-76
2022/10/19 10:51:54;;;;;;;;;17.75;17.75;;;;;;;;5079498;27;45330;-72
2022/10/19 10:54:24;;;;;;;;;18.75;18.75;;;;;;;;5079200;27;45270;-69
2022/10/19 10:56:58;;;;;;;;;22.25;21.50;;;;;;;;5079000;27;45329;-69
2022/10/19 10:59:56;;;;;;;;;23.25;23.00;;;;;;;;5085579;27;46174;-70
2022/10/19 11:02:38;;;;;;;;;17.25;17.25;;;;;;;;5063153;27;45361;-72
2022/10/19 11:05:09;;;;;;;;;22.75;22.75;;;;;;;;5079734;27;45437;-68
2022/10/19 11:07:35;;;;;;;;;14.75;14.75;;;;;;;;5080049;27;45334;-74
2022/10/19 11:10:13;;;;;;;;;20.75;20.75;;;;;;;;5080181;27;46300;-68
2022/10/19 11:12:46;;;;;;;;;21.75;21.75;;;;;;;;5078269;27;45174;-72
2022/10/19 11:15:21;;;;;;;;;30.00;29.00;;;;;;;;5078692;28;45243;-68
2022/10/19 11:17:54;;;;;;;;;22.50;22.50;;;;;;;;5079259;28;45296;-70
2022/10/19 11:20:21;;;;;;;;;23.25;23.25;;;;;;;;5079494;27;46024;-72
2022/10/19 11:22:51;;;;;;;;;15.25;15.25;;;;;;;;5080579;27;45255;-67
2022/10/19 11:25:20;;;;;;;;;18.75;18.75;;;;;;;;5079492;27;45332;-68
2022/10/19 11:28:11;;;;;;;;;18.25;18.25;;;;;;;;5079209;27;45247;-71
2022/10/19 11:30:46;;;;;;;;;18.00;18.00;;;;;;;;5078256;27;46065;-69
2022/10/19 11:33:11;;;;;;;;;24.00;22.50;;;;;;;;5081229;27;45466;-72
2022/10/19 11:35:42;;;;;;;;;21.00;21.00;;;;;;;;5082636;27;45231;-73
2022/10/19 11:38:33;;;;;;;;;13.00;12.75;;;;;;;;5083283;27;45358;-70
2022/10/19 11:41:17;;;;;;;;;18.50;18.25;;;;;;;;5111640;27;47011;-68
2022/10/19 11:43:53;;;;;;;;;17.50;17.50;;;;;;;;5078224;27;45413;-71
2022/10/19 11:46:29;;;;;;;;;32.50;31.00;;;;;;;;5078919;27;45480;-70
2022/10/19 11:49:00;;;;;;;;;20.75;20.00;;;;;;;;5081188;27;45380;-72
2022/10/19 11:51:25;;;;;;;;;21.00;21.00;;;;;;;;5077899;27;45537;-75
2022/10/19 11:53:50;;;;;;;;;14.75;14.75;;;;;;;;5077591;27;45339;-71
2022/10/19 11:56:27;;;;;;;;;15.25;15.25;;;;;;;;5078095;27;45369;-66
2022/10/19 11:59:10;;;;;;;;;21.00;21.00;;;;;;;;5110808;27;45547;-66
2022/10/19 12:01:59;;;;;;;;;17.50;17.50;;;;;;;;5077467;27;45383;-73
2022/10/19 12:04:24;;;;;;;;;24.00;24.00;;;;;;;;5067978;28;45364;-67
2022/10/19 12:06:52;;;;;;;;;31.50;30.00;;;;;;;;5077669;28;45312;-68
2022/10/19 12:09:42;;;;;;;;;23.25;23.25;;;;;;;;5078661;27;45593;-72
2022/10/19 12:12:25;;;;;;;;;14.00;14.00;;;;;;;;5077002;28;45520;-72
2022/10/19 12:14:52;;;;;;;;;16.50;16.50;;;;;;;;5077798;27;45364;-65
2022/10/19 12:17:22;;;;;;;;;14.25;13.75;;;;;;;;5077424;27;45350;-69
2022/10/19 12:19:49;;;;;;;;;18.25;18.25;;;;;;;;5078346;27;45499;-73
2022/10/19 12:22:21;;;;;;;;;13.50;13.50;;;;;;;;5078870;27;46143;-67
2022/10/19 12:24:47;;;;;;;;;15.00;15.00;;;;;;;;5078696;27;45232;-69
2022/10/19 12:27:13;;;;;;;;;20.50;20.50;;;;;;;;5076767;28;45257;-75
2022/10/19 12:29:42;;;;;;;;;17.50;17.50;;;;;;;;5077907;28;45916;-74
2022/10/19 12:32:11;;;;;;;;;14.00;14.00;;;;;;;;5077210;28;45384;-68
2022/10/19 12:34:37;;;;;;;;;21.25;21.25;;;;;;;;5076398;27;45236;-67
2022/10/19 12:37:10;;;;;;;;;21.50;21.50;;;;;;;;5110065;27;45284;-71
2022/10/19 12:39:43;;;;;;;;;19.25;19.25;;;;;;;;5077202;27;45256;-69
2022/10/19 12:42:26;;;;;;;;;13.50;13.50;;;;;;;;5075416;27;46351;-70
2022/10/19 12:45:00;;;;;;;;;27.00;27.00;;;;;;;;5076956;27;45456;-75
2022/10/19 12:47:25;;;;;;;;;20.00;20.00;;;;;;;;5076963;27;45405;-70
2022/10/19 12:49:51;;;;;;;;;17.25;17.25;;;;;;;;5079849;28;45386;-68
2022/10/19 12:52:37;;;;;;;;;11.00;11.00;;;;;;;;5077403;27;46741;-73
2022/10/19 12:55:14;;;;;;;;;13.50;13.50;;;;;;;;5076459;27;45361;-74
2022/10/19 12:57:39;;;;;;;;;19.75;19.75;;;;;;;;5077885;27;45336;-72
2022/10/19 13:00:17;;;;;;;;;16.00;16.00;;;;;;;;5075308;28;45191;-75
2022/10/19 13:02:43;;;;;;;;;18.25;18.25;;;;;;;;5108938;27;46580;-71
2022/10/19 13:05:18;;;;;;;;;19.50;19.50;;;;;;;;5076630;27;45299;-68
2022/10/19 13:07:46;;;;;;;;;15.50;15.50;;;;;;;;5076477;27;45335;-71
2022/10/19 13:10:18;;;;;;;;;22.00;22.00;;;;;;;;5076561;27;45452;-69
2022/10/19 13:12:45;;;;;;;;;17.25;17.25;;;;;;;;5076037;27;45294;-70
2022/10/19 13:15:30;;;;;;;;;19.50;19.50;;;;;;;;5076550;27;45347;-68
2022/10/19 13:17:55;;;;;;;;;14.75;14.75;;;;;;;;5077365;28;45331;-68
2022/10/19 13:20:23;;;;;;;;;14.00;14.00;;;;;;;;5077429;27;45373;-68
2022/10/19 13:22:58;;;;;;;;;17.25;17.25;;;;;;;;5076529;27;45338;-71
2022/10/19 13:25:26;;;;;;;;;18.25;18.25;;;;;;;;5108743;27;45393;-69
2022/10/19 13:27:53;;;;;;;;;17.25;17.25;;;;;;;;5076493;27;45261;-72
2022/10/19 13:33:20;;;;;;;;;14.00;14.00;;;;;;;;5075936;27;46182;-66
2022/10/19 13:35:46;;;;;;;;;13.50;13.25;;;;;;;;5075893;27;45172;-68
2022/10/19 13:38:14;;;;;;;;;14.50;14.50;;;;;;;;5075526;27;45356;-67
2022/10/19 13:40:48;;;;;;;;;16.75;16.75;;;;;;;;5076287;28;45477;-67
2022/10/19 13:43:16;;;;;;;;;16.50;16.50;;;;;;;;5108977;27;47119;-69
2022/10/19 13:45:41;;;;;;;;;12.75;12.75;;;;;;;;5078932;27;45220;-72
2022/10/19 13:48:17;;;;;;;;;11.00;11.00;;;;;;;;5076429;27;45463;-66
2022/10/19 13:50:48;;;;;;;;;13.25;13.25;;;;;;;;5076195;27;45264;-70
2022/10/19 13:53:14;;;;;;;;;14.25;14.25;;;;;;;;5077305;28;46557;-72
2022/10/19 13:56:08;;;;;;;;;15.25;15.25;;;;;;;;5079778;27;45430;-72
2022/10/19 13:58:39;;;;;;;;;16.50;14.75;;;;;;;;5074626;27;45396;-73
2022/10/19 14:01:26;;;;;;;;;14.25;14.25;;;;;;;;5079894;27;45515;-73
2022/10/19 14:04:05;;;;;;;;;16.25;16.25;;;;;;;;5077925;28;47280;-66
2022/10/19 14:06:52;;;;;;;;;13.25;13.25;;;;;;;;5078774;27;45333;-65
2022/10/19 14:09:35;;;;;;;;;17.00;17.00;;;;;;;;5078649;27;45382;-69
2022/10/19 14:12:05;;;;;;;;;13.00;13.00;;;;;;;;5080560;27;45516;-75
2022/10/19 14:14:37;;;;;;;;;12.75;12.75;;;;;;;;5112778;27;47581;-66
2022/10/19 14:17:02;;;;;;;;;26.00;26.00;;;;;;;;5083214;27;45318;-67
2022/10/19 14:19:29;;;;;;;;;12.75;12.75;;;;;;;;5078879;27;45356;-71
2022/10/19 14:21:55;;;;;;;;;20.00;20.00;;;;;;;;5078976;27;45418;-71
2022/10/19 14:24:28;;;;;;;;;16.00;16.00;;;;;;;;5078839;27;46298;-71
2022/10/19 14:26:54;;;;;;;;;14.75;14.00;;;;;;;;5079264;27;45372;-66
2022/10/19 14:29:19;;;;;;;;;13.75;13.75;;;;;;;;5078884;28;45166;-67